createdAt,value
2019-02-26T00:02:25.938Z,3.93
2019-02-26T00:04:56.401Z,4.30
2019-02-26T00:07:28.151Z,4.20
2019-02-26T00:09:59.641Z,3.40
2019-02-26T00:12:31.050Z,3.43
2019-02-26T00:15:02.593Z,4.33
2019-02-26T00:17:36.226Z,3.73
2019-02-26T00:37:53.462Z,4.30
2019-02-26T00:40:23.988Z,3.60
2019-02-26T00:42:55.017Z,6.63
2019-02-26T00:45:27.216Z,3.80
2019-02-26T00:47:56.294Z,3.70
2019-02-26T00:50:27.971Z,3.90
2019-02-26T00:52:59.396Z,3.77
2019-02-26T00:55:29.818Z,4.03
2019-02-26T00:58:01.063Z,3.80
2019-02-26T01:00:33.086Z,4.23
2019-02-26T01:03:03.994Z,4.87
2019-02-26T01:05:36.121Z,7.17
2019-02-26T01:08:06.464Z,4.40
2019-02-26T01:10:39.293Z,4.33
2019-02-26T01:13:08.529Z,4.27
2019-02-26T01:15:38.139Z,3.73
2019-02-26T01:18:07.738Z,3.37
2019-02-26T01:20:37.430Z,3.20
2019-02-26T01:23:07.068Z,3.40
2019-02-26T01:25:38.738Z,3.27
2019-02-26T01:28:08.095Z,3.47
2019-02-26T01:30:37.692Z,3.37
2019-02-26T01:33:08.096Z,3.70
2019-02-26T01:35:38.681Z,3.40
2019-02-26T01:38:08.302Z,3.20
2019-02-26T01:40:41.481Z,3.50
2019-02-26T01:43:09.327Z,3.10
2019-02-26T01:45:39.012Z,4.63
2019-02-26T01:48:09.221Z,4.07
2019-02-26T01:50:40.708Z,4.17
2019-02-26T01:53:12.012Z,4.33
2019-02-26T01:55:43.685Z,4.03
2019-02-26T01:58:15.915Z,4.60
2019-02-26T02:00:44.462Z,4.87
2019-02-26T02:03:14.074Z,5.03
2019-02-26T02:05:45.693Z,6.13
2019-02-26T02:08:15.572Z,12.67
2019-02-26T02:10:46.645Z,15.57
2019-02-26T02:13:16.291Z,13.77
2019-02-26T02:15:46.568Z,11.77
2019-02-26T02:18:18.220Z,11.27
2019-02-26T02:20:47.792Z,11.53
2019-02-26T02:23:19.395Z,11.47
2019-02-26T02:25:48.833Z,11.23
2019-02-26T02:28:19.538Z,8.30
2019-02-26T02:30:49.757Z,8.20
2019-02-26T02:33:23.463Z,7.37
2019-02-26T02:35:50.771Z,7.10
2019-02-26T02:38:20.624Z,7.33
2019-02-26T02:40:52.713Z,6.53
2019-02-26T02:43:23.572Z,5.90
2019-02-26T02:45:55.687Z,6.50
2019-02-26T02:48:24.460Z,6.30
2019-02-26T02:50:54.093Z,6.00
2019-02-26T02:53:24.530Z,6.27
2019-02-26T02:55:55.058Z,6.10
2019-02-26T02:58:26.084Z,5.93
2019-02-26T03:00:57.138Z,5.60
2019-02-26T03:03:27.130Z,6.07
2019-02-26T03:05:58.433Z,6.10
2019-02-26T03:08:28.250Z,7.00
2019-02-26T03:10:57.898Z,8.57
2019-02-26T03:13:28.076Z,9.20
2019-02-26T03:15:59.289Z,9.20
2019-02-26T03:18:29.220Z,8.93
2019-02-26T03:21:00.090Z,8.87
2019-02-26T03:23:31.419Z,9.53
2019-02-26T03:26:01.681Z,10.37
2019-02-26T03:28:34.878Z,9.63
2019-02-26T03:31:02.639Z,8.70
2019-02-26T03:33:32.244Z,8.20
2019-02-26T03:36:05.447Z,7.13
2019-02-26T03:38:33.200Z,7.43
2019-02-26T03:41:03.687Z,8.10
2019-02-26T03:43:34.186Z,7.93
2019-02-26T03:46:04.770Z,7.70
2019-02-26T03:48:34.381Z,6.77
2019-02-26T03:51:04.099Z,7.63
2019-02-26T03:53:36.161Z,7.80
2019-02-26T03:56:08.036Z,7.37
2019-02-26T03:58:36.732Z,7.00
2019-02-26T04:01:08.416Z,7.10
2019-02-26T04:03:39.554Z,6.23
2019-02-26T04:06:11.743Z,6.13
2019-02-26T04:08:42.227Z,6.67
2019-02-26T04:11:13.982Z,6.43
2019-02-26T04:13:45.798Z,5.97
2019-02-26T04:16:14.981Z,6.20
2019-02-26T04:18:44.644Z,6.30
2019-02-26T04:21:17.669Z,6.40
2019-02-26T04:23:46.711Z,6.20
2019-02-26T04:26:46.139Z,6.80
2019-02-26T04:29:43.511Z,6.60
2019-02-26T04:32:40.883Z,7.10
2019-02-26T04:35:29.232Z,7.30
2019-02-26T04:38:43.242Z,7.70
2019-02-26T04:41:37.648Z,7.13
2019-02-26T04:44:58.868Z,6.37
2019-02-26T04:47:33.801Z,6.97
2019-02-26T04:50:06.200Z,6.53
2019-02-26T04:52:35.895Z,6.63
2019-02-26T04:55:06.392Z,7.33
2019-02-26T04:57:39.385Z,23.67
2019-02-26T05:00:10.411Z,6.60
2019-02-26T05:02:39.085Z,7.00
2019-02-26T05:05:08.830Z,7.20
2019-02-26T05:07:41.425Z,6.67
2019-02-26T05:10:09.891Z,6.77
2019-02-26T05:12:40.185Z,6.90
2019-02-26T05:15:13.983Z,6.30
2019-02-26T05:17:41.602Z,6.93
2019-02-26T05:20:13.421Z,6.93
2019-02-26T05:22:42.674Z,5.97
2019-02-26T05:25:16.344Z,22.93
2019-02-26T05:27:46.145Z,5.67
2019-02-26T05:30:17.219Z,5.87
2019-02-26T05:32:46.394Z,6.13
2019-02-26T05:35:18.054Z,5.50
2019-02-26T05:37:47.348Z,5.67
2019-02-26T05:40:19.779Z,5.77
2019-02-26T05:42:48.390Z,5.50
2019-02-26T05:45:17.952Z,5.57
2019-02-26T05:47:50.367Z,5.67
2019-02-26T05:50:19.920Z,5.93
2019-02-26T05:52:53.481Z,5.97
2019-02-26T05:55:23.664Z,6.53
2019-02-26T05:57:52.167Z,6.43
2019-02-26T06:00:25.523Z,6.57
2019-02-26T06:02:53.121Z,6.07
2019-02-26T06:05:24.068Z,5.80
2019-02-26T06:07:54.099Z,5.70
2019-02-26T06:10:24.613Z,6.07
2019-02-26T06:12:55.057Z,6.50
2019-02-26T06:15:25.965Z,6.63
2019-02-26T06:17:56.172Z,7.17
2019-02-26T06:20:28.568Z,6.37
2019-02-26T06:22:57.148Z,6.00
2019-02-26T06:25:26.831Z,6.53
2019-02-26T06:27:56.435Z,5.93
2019-02-26T06:30:26.125Z,6.53
2019-02-26T06:32:59.679Z,6.33
2019-02-26T06:35:27.218Z,6.70
2019-02-26T06:37:59.590Z,6.67
2019-02-26T06:40:32.384Z,7.53
2019-02-26T06:43:01.274Z,7.80
2019-02-26T06:45:30.947Z,7.67
2019-02-26T06:48:00.579Z,7.40
2019-02-26T06:50:31.825Z,7.13
2019-02-26T06:53:04.416Z,7.17
2019-02-26T06:55:34.581Z,7.10
2019-02-26T06:58:21.800Z,6.93
2019-02-26T07:00:55.458Z,6.83
2019-02-26T07:03:29.614Z,6.83
2019-02-26T07:06:01.724Z,7.40
2019-02-26T07:08:30.953Z,8.13
2019-02-26T07:11:03.758Z,7.80
2019-02-26T07:13:36.836Z,9.30
2019-02-26T07:16:07.481Z,9.10
2019-02-26T07:18:39.126Z,9.93
2019-02-26T07:21:11.760Z,9.60
2019-02-26T07:23:41.382Z,10.50
2019-02-26T07:26:13.523Z,11.20
2019-02-26T07:28:44.104Z,10.30
2019-02-26T07:31:16.540Z,10.57
2019-02-26T07:33:46.867Z,9.57
2019-02-26T07:36:18.540Z,9.20
2019-02-26T07:38:51.499Z,9.10
2019-02-26T07:41:21.334Z,8.03
2019-02-26T07:43:54.607Z,8.07
2019-02-26T07:46:23.460Z,7.40
2019-02-26T07:48:54.041Z,7.00
2019-02-26T07:51:24.612Z,6.53
2019-02-26T07:53:56.078Z,6.90
2019-02-26T07:56:27.759Z,7.40
2019-02-26T07:59:01.053Z,8.43
2019-02-26T08:01:28.318Z,7.97
2019-02-26T08:03:57.983Z,8.03
2019-02-26T08:06:29.379Z,8.17
2019-02-26T08:08:58.974Z,8.70
2019-02-26T08:11:28.676Z,9.17
2019-02-26T08:13:59.274Z,8.63
2019-02-26T08:16:30.088Z,9.67
2019-02-26T08:19:01.369Z,10.27
2019-02-26T08:21:31.185Z,10.60
2019-02-26T08:24:01.057Z,10.50
2019-02-26T08:26:30.721Z,10.43
2019-02-26T08:29:02.511Z,10.30
2019-02-26T08:31:31.895Z,9.67
2019-02-26T08:34:01.581Z,9.50
2019-02-26T08:36:31.248Z,8.40
2019-02-26T08:39:00.861Z,7.83
2019-02-26T08:41:30.509Z,7.30
2019-02-26T08:44:00.141Z,7.70
2019-02-26T08:46:29.754Z,8.00
2019-02-26T08:49:08.098Z,8.10
2019-02-26T08:51:30.891Z,7.77
2019-02-26T08:54:00.560Z,8.50
2019-02-26T08:56:33.287Z,9.60
2019-02-26T08:59:03.523Z,9.13
2019-02-26T09:01:32.885Z,9.17
2019-02-26T09:04:02.532Z,9.63
2019-02-26T09:06:32.169Z,20.37
2019-02-26T09:09:02.708Z,9.93
2019-02-26T09:11:33.902Z,10.83
2019-02-26T09:14:06.596Z,11.40
2019-02-26T09:16:35.980Z,8.93
2019-02-26T09:19:05.801Z,7.80
2019-02-26T09:21:36.911Z,8.20
2019-02-26T09:24:19.137Z,7.20
2019-02-26T09:26:49.478Z,8.60
2019-02-26T09:30:06.746Z,7.93
2019-02-26T09:32:44.859Z,8.00
2019-02-26T09:35:16.878Z,8.53
2019-02-26T09:37:47.915Z,7.90
2019-02-26T09:43:06.310Z,8.37
2019-02-26T09:45:36.338Z,7.83
2019-02-26T09:48:09.924Z,8.23
2019-02-26T09:50:41.340Z,7.30
2019-02-26T09:53:10.782Z,6.70
2019-02-26T09:55:40.461Z,7.03
2019-02-26T09:58:10.134Z,6.23
2019-02-26T10:00:40.585Z,6.47
2019-02-26T10:03:13.203Z,7.33
2019-02-26T10:05:42.558Z,8.97
2019-02-26T10:08:12.147Z,9.00
2019-02-26T10:10:41.907Z,8.67
2019-02-26T10:13:11.650Z,9.10
2019-02-26T10:15:42.788Z,9.73
2019-02-26T10:18:12.700Z,8.57
2019-02-26T10:20:45.025Z,9.03
2019-02-26T10:23:13.730Z,9.63
2019-02-26T10:25:43.339Z,9.27
2019-02-26T10:28:14.111Z,9.10
2019-02-26T10:30:44.374Z,9.23
2019-02-26T10:33:17.423Z,9.23
2019-02-26T10:35:47.446Z,8.33
2019-02-26T10:38:16.564Z,8.57
2019-02-26T10:40:53.973Z,7.70
2019-02-26T10:43:17.566Z,8.10
2019-02-26T10:45:48.181Z,7.77
2019-02-26T10:48:19.764Z,8.13
2019-02-26T10:50:51.766Z,8.73
2019-02-26T10:53:22.686Z,8.57
2019-02-26T10:55:52.493Z,8.80
2019-02-26T10:58:22.120Z,8.87
2019-02-26T11:00:55.616Z,8.07
2019-02-26T11:03:24.922Z,8.17
2019-02-26T11:05:54.595Z,9.10
2019-02-26T11:08:26.766Z,8.53
2019-02-26T11:10:55.515Z,9.43
2019-02-26T11:13:25.873Z,12.40
2019-02-26T11:15:57.575Z,9.30
2019-02-26T11:18:27.744Z,10.07
2019-02-26T11:20:59.220Z,10.17
2019-02-26T11:23:31.206Z,9.57
2019-02-26T11:26:06.600Z,11.37
2019-02-26T11:28:40.387Z,10.60
2019-02-26T11:31:09.007Z,10.40
2019-02-26T11:33:39.485Z,11.47
2019-02-26T11:36:11.133Z,11.00
2019-02-26T11:38:42.167Z,11.27
2019-02-26T11:41:11.743Z,11.53
2019-02-26T11:43:41.380Z,10.80
2019-02-26T11:46:10.973Z,10.27
2019-02-26T11:48:40.561Z,11.03
2019-02-26T11:51:11.973Z,10.20
2019-02-26T11:53:43.446Z,10.27
2019-02-26T11:56:13.534Z,8.97
2019-02-26T11:58:44.200Z,9.47
2019-02-26T12:01:15.916Z,10.43
2019-02-26T12:03:45.514Z,9.27
2019-02-26T12:06:15.177Z,9.97
2019-02-26T12:08:46.962Z,8.70
2019-02-26T12:11:17.655Z,9.47
2019-02-26T12:13:50.073Z,9.43
2019-02-26T12:16:18.958Z,10.10
2019-02-26T12:18:48.758Z,9.57
2019-02-26T12:21:18.447Z,10.03
2019-02-26T12:23:48.079Z,8.90
2019-02-26T12:26:19.192Z,9.30
2019-02-26T12:28:49.080Z,8.90
2019-02-26T12:31:18.678Z,9.13
2019-02-26T12:33:48.358Z,8.03
2019-02-26T12:36:17.966Z,8.90
2019-02-26T12:38:50.114Z,8.40
2019-02-26T12:41:20.893Z,8.90
2019-02-26T12:43:50.421Z,8.43
2019-02-26T12:46:21.733Z,9.13
2019-02-26T12:48:51.919Z,7.60
2019-02-26T12:51:22.613Z,8.17
2019-02-26T12:53:52.903Z,8.47
2019-02-26T12:56:24.190Z,8.40
2019-02-26T12:58:54.743Z,9.00
2019-02-26T13:01:24.385Z,9.20
2019-02-26T13:03:55.095Z,8.30
2019-02-26T13:06:25.091Z,8.27
2019-02-26T13:08:54.823Z,7.83
2019-02-26T13:11:25.199Z,8.03
2019-02-26T13:13:54.967Z,8.37
2019-02-26T13:16:24.719Z,7.93
2019-02-26T13:19:00.129Z,8.73
2019-02-26T13:21:25.980Z,8.57
2019-02-26T13:23:59.130Z,9.80
2019-02-26T13:26:27.143Z,8.93
2019-02-26T13:29:00.359Z,8.83
2019-02-26T13:31:28.209Z,9.27
2019-02-26T13:33:57.981Z,9.50
2019-02-26T13:36:27.635Z,8.13
2019-02-26T13:38:57.293Z,8.23
2019-02-26T13:41:29.846Z,7.40
2019-02-26T13:43:58.366Z,7.60
2019-02-26T13:46:28.341Z,7.60
2019-02-26T13:48:58.013Z,7.40
2019-02-26T13:51:27.627Z,8.37
2019-02-26T13:53:57.266Z,7.80
2019-02-26T13:56:26.903Z,7.97
2019-02-26T13:58:56.550Z,7.30
2019-02-26T14:01:26.197Z,7.93
2019-02-26T14:03:55.855Z,7.37
2019-02-26T14:06:25.479Z,7.60
2019-02-26T14:08:55.335Z,7.60
2019-02-26T14:11:25.100Z,8.17
2019-02-26T14:13:54.764Z,8.50
2019-02-26T14:16:24.411Z,7.33
2019-02-26T14:18:54.256Z,7.20
2019-02-26T14:21:23.838Z,7.23
2019-02-26T14:23:53.462Z,7.37
2019-02-26T14:26:23.177Z,7.47
2019-02-26T14:28:52.846Z,7.73
2019-02-26T14:31:22.766Z,7.67
2019-02-26T14:33:52.423Z,7.90
2019-02-26T14:36:22.019Z,7.40
2019-02-26T14:38:51.645Z,25.90
2019-02-26T14:41:21.261Z,7.40
2019-02-26T14:43:50.930Z,7.83
2019-02-26T14:46:20.614Z,7.97
2019-02-26T14:48:50.268Z,8.47
2019-02-26T14:51:19.833Z,8.10
2019-02-26T14:53:49.607Z,7.60
2019-02-26T14:56:19.227Z,8.97
2019-02-26T14:58:48.793Z,8.50
2019-02-26T15:01:18.398Z,8.27
2019-02-26T15:03:48.023Z,9.07
2019-02-26T15:06:17.699Z,9.03
2019-02-26T15:08:47.452Z,9.20
2019-02-26T15:11:17.035Z,9.13
2019-02-26T15:13:46.705Z,8.73
2019-02-26T15:16:19.251Z,8.80
2019-02-26T15:18:47.929Z,8.00
2019-02-26T15:21:17.676Z,7.87
2019-02-26T15:23:47.322Z,8.00
2019-02-26T15:26:16.947Z,7.53
2019-02-26T15:28:46.567Z,8.27
2019-02-26T15:31:16.140Z,8.63
2019-02-26T15:33:45.824Z,8.70
2019-02-26T15:36:15.419Z,8.33
2019-02-26T15:38:45.190Z,8.97
2019-02-26T15:41:14.802Z,8.70
2019-02-26T15:43:44.566Z,9.20
2019-02-26T15:46:14.155Z,9.13
2019-02-26T15:48:43.969Z,8.93
2019-02-26T15:51:14.582Z,9.17
2019-02-26T15:53:45.384Z,10.43
2019-02-26T15:56:15.462Z,10.80
2019-02-26T15:58:45.070Z,11.70
2019-02-26T16:01:15.170Z,12.93
2019-02-26T16:03:45.356Z,11.70
2019-02-26T16:06:15.030Z,13.23
2019-02-26T16:08:44.663Z,12.30
2019-02-26T16:11:14.346Z,13.43
2019-02-26T16:13:44.524Z,12.87
2019-02-26T16:16:14.254Z,13.43
2019-02-26T16:18:43.956Z,14.10
2019-02-26T16:21:13.656Z,12.77
2019-02-26T16:23:43.306Z,13.23
2019-02-26T16:26:12.979Z,13.80
2019-02-26T16:28:42.699Z,13.47
2019-02-26T16:31:12.382Z,14.33
2019-02-26T16:33:42.078Z,15.63
2019-02-26T16:36:13.039Z,14.43
2019-02-26T16:38:42.836Z,14.03
2019-02-26T16:41:12.501Z,13.50
2019-02-26T16:43:42.186Z,13.07
2019-02-26T16:46:11.867Z,14.43
2019-02-26T16:48:41.565Z,13.67
2019-02-26T16:51:11.272Z,14.10
2019-02-26T16:53:40.918Z,13.80
2019-02-26T16:56:10.643Z,13.37
2019-02-26T16:58:40.295Z,15.07
2019-02-26T17:01:10.337Z,13.70
2019-02-26T17:03:40.425Z,13.73
2019-02-26T17:06:10.049Z,14.27
2019-02-26T17:08:39.676Z,13.50
2019-02-26T17:11:13.307Z,14.53
2019-02-26T17:13:42.730Z,14.70
2019-02-26T17:16:12.251Z,15.43
2019-02-26T17:18:42.814Z,14.87
2019-02-26T17:21:13.180Z,15.57
2019-02-26T17:23:44.794Z,14.60
2019-02-26T17:26:19.577Z,15.50
2019-02-26T17:28:49.172Z,14.53
2019-02-26T17:31:18.832Z,15.20
2019-02-26T17:33:48.426Z,15.33
2019-02-26T17:36:18.035Z,15.63
2019-02-26T17:38:51.556Z,16.23
2019-02-26T17:41:19.138Z,16.50
2019-02-26T17:43:48.818Z,16.00
2019-02-26T17:46:18.434Z,15.93
2019-02-26T17:48:48.083Z,15.90
2019-02-26T17:51:19.083Z,16.10
2019-02-26T17:53:49.189Z,16.13
2019-02-26T17:56:18.847Z,15.90
2019-02-26T17:58:49.450Z,15.50
2019-02-26T18:01:19.122Z,16.17
2019-02-26T18:03:48.768Z,15.67
2019-02-26T18:06:18.365Z,15.17
2019-02-26T18:08:48.039Z,15.43
2019-02-26T18:11:17.641Z,15.27
2019-02-26T18:13:47.268Z,15.63
2019-02-26T18:16:16.911Z,15.33
2019-02-26T18:18:47.819Z,15.73
2019-02-26T18:21:17.453Z,16.10
2019-02-26T18:23:47.286Z,15.67
2019-02-26T18:26:17.835Z,15.40
2019-02-26T18:28:48.411Z,15.37
2019-02-26T18:31:26.244Z,16.40
2019-02-26T18:33:49.521Z,16.27
2019-02-26T18:36:19.148Z,14.97
2019-02-26T18:38:49.266Z,14.73
2019-02-26T18:41:19.089Z,15.60
2019-02-26T18:43:48.755Z,15.33
2019-02-26T18:46:18.406Z,16.23
2019-02-26T18:48:48.680Z,15.77
2019-02-26T18:51:18.891Z,15.87
2019-02-26T18:53:48.499Z,15.20
2019-02-26T18:56:18.096Z,13.97
2019-02-26T18:58:49.046Z,15.87
2019-02-26T19:01:19.083Z,14.97
2019-02-26T19:03:48.775Z,15.17
2019-02-26T19:06:18.410Z,14.93
2019-02-26T19:08:48.024Z,14.97
2019-02-26T19:11:17.625Z,14.80
2019-02-26T19:13:47.245Z,14.67
2019-02-26T19:16:20.453Z,16.00
2019-02-26T19:18:48.245Z,14.77
2019-02-26T19:21:21.579Z,14.30
2019-02-26T19:23:49.219Z,15.13
2019-02-26T19:26:18.863Z,16.37
2019-02-26T19:28:48.577Z,16.57
2019-02-26T19:31:18.196Z,15.83
2019-02-26T19:33:47.812Z,15.57
2019-02-26T19:36:17.469Z,16.87
2019-02-26T19:38:47.060Z,15.80
2019-02-26T19:41:16.855Z,16.13
2019-02-26T19:43:46.503Z,16.20
2019-02-26T19:46:17.628Z,15.73
2019-02-26T19:48:47.608Z,15.90
2019-02-26T19:51:17.242Z,15.47
2019-02-26T19:53:46.901Z,16.30
2019-02-26T19:56:16.515Z,16.57
2019-02-26T19:58:46.118Z,15.93
2019-02-26T20:01:15.776Z,17.67
2019-02-26T20:03:45.419Z,16.77
2019-02-26T20:06:15.126Z,17.00
2019-02-26T20:08:44.805Z,16.93
2019-02-26T20:11:14.435Z,15.70
2019-02-26T20:13:44.214Z,17.30
2019-02-26T20:16:13.868Z,16.70
2019-02-26T20:18:43.444Z,16.97
2019-02-26T20:21:13.228Z,17.33
2019-02-26T20:23:42.834Z,17.57
2019-02-26T20:26:16.169Z,17.63
2019-02-26T20:28:43.881Z,17.13
2019-02-26T20:31:13.478Z,17.53
2019-02-26T20:33:43.073Z,16.47
2019-02-26T20:36:12.709Z,16.93
2019-02-26T20:38:42.342Z,18.07
2019-02-26T20:41:12.024Z,16.30
2019-02-26T20:43:41.635Z,16.70
2019-02-26T20:46:11.244Z,17.03
2019-02-26T20:48:40.921Z,17.10
2019-02-26T20:51:10.613Z,16.77
2019-02-26T20:53:40.325Z,17.00
2019-02-26T20:56:09.926Z,16.30
2019-02-26T20:58:39.536Z,17.40
2019-02-26T21:01:09.148Z,17.27
2019-02-26T21:03:38.832Z,17.63
2019-02-26T21:06:08.428Z,16.87
2019-02-26T21:08:38.010Z,17.40
2019-02-26T21:11:07.634Z,18.20
2019-02-26T21:13:37.235Z,16.90
2019-02-26T21:16:06.876Z,17.73
2019-02-26T21:18:36.464Z,17.97
2019-02-26T21:21:06.105Z,17.90
2019-02-26T21:23:35.722Z,17.77
2019-02-26T21:26:05.324Z,17.43
2019-02-26T21:28:34.973Z,17.83
2019-02-26T21:31:04.731Z,17.67
2019-02-26T21:33:34.355Z,17.53
2019-02-26T21:36:03.980Z,17.07
2019-02-26T21:38:33.563Z,18.10
2019-02-26T21:41:03.244Z,18.20
2019-02-26T21:43:35.444Z,17.50
2019-02-26T21:46:04.282Z,17.13
2019-02-26T21:48:36.334Z,17.80
2019-02-26T21:51:06.747Z,17.70
2019-02-26T21:53:36.516Z,17.70
2019-02-26T21:56:06.121Z,17.80
2019-02-26T21:58:35.706Z,17.60
2019-02-26T22:01:05.296Z,17.23
2019-02-26T22:03:34.919Z,16.90
2019-02-26T22:06:05.563Z,17.80
2019-02-26T22:08:35.395Z,16.40
2019-02-26T22:11:05.017Z,16.00
2019-02-26T22:13:34.632Z,17.40
2019-02-26T22:16:04.260Z,17.53
2019-02-26T22:18:34.333Z,17.27
2019-02-26T22:21:04.223Z,18.47
2019-02-26T22:23:34.818Z,17.63
2019-02-26T22:26:04.665Z,17.50
2019-02-26T22:28:34.286Z,17.50
2019-02-26T22:31:03.909Z,17.20
2019-02-26T22:33:33.526Z,16.73
2019-02-26T22:36:03.112Z,17.70
2019-02-26T22:38:32.779Z,17.53
2019-02-26T22:41:02.952Z,17.33
2019-02-26T22:43:32.661Z,16.17
2019-02-26T22:46:02.282Z,16.93
2019-02-26T22:48:31.856Z,15.80
2019-02-26T22:51:01.437Z,16.53
2019-02-26T22:53:31.124Z,16.53
2019-02-26T22:56:00.773Z,16.10
2019-02-26T22:58:30.352Z,15.60
2019-02-26T23:01:45.356Z,15.70
2019-02-26T23:04:19.270Z,15.40
2019-02-26T23:06:46.342Z,15.23
2019-02-26T23:09:21.448Z,14.97
2019-02-26T23:11:51.103Z,16.00
2019-02-26T23:14:20.835Z,15.17
2019-02-26T23:16:52.091Z,15.00
2019-02-26T23:19:22.157Z,15.10
2019-02-26T23:21:51.767Z,15.20
2019-02-26T23:24:21.745Z,15.17
2019-02-26T23:26:51.427Z,15.27
2019-02-26T23:29:21.021Z,14.57
2019-02-26T23:31:51.735Z,15.30
2019-02-26T23:34:22.562Z,15.30
2019-02-26T23:36:52.414Z,14.70
2019-02-26T23:39:22.143Z,15.63
2019-02-26T23:41:51.746Z,15.27
2019-02-26T23:44:21.315Z,14.93
2019-02-26T23:46:50.913Z,14.63
2019-02-26T23:49:20.611Z,15.07
2019-02-26T23:51:53.370Z,15.03
2019-02-26T23:54:21.527Z,15.67
2019-02-26T23:56:52.045Z,15.03
2019-02-26T23:59:22.240Z,14.67
